LNK053L FXMM-FAOR
Flight info
| Callsign | LNK053L |
|---|---|
| Flight time | 0h 47m |
| Altitude | 31000 |
| Route | MZV DCT IMGEV UZ5 UNPOM UNPOM1B |
| Aircraft | RJ85/M-SDFGIRWY/LB1 |
Departure
| Time | 2026-05-06 09:23 |
|---|---|
| Airport | Moshoeshoe I International Airport (FXMM) |
Arrival
| Time | 2026-05-06 10:11 |
|---|---|
| Airport | O.R. Tambo International Airport (FAOR) |
| Time | Latitude | Longitude | Altitude | Speed | Heading |
|---|---|---|---|---|---|
| 2026-05-06 08:47 | -29.45483 | 27.55850 | 5332 ft | 0 kts | 136° |
| 2026-05-06 09:17 | -29.45484 | 27.55850 | 5331 ft | 0 kts | 140° |
| 2026-05-06 09:17 | -29.45489 | 27.55850 | 5335 ft | 1 kts | 197° |
| 2026-05-06 09:18 | -29.45493 | 27.55823 | 5334 ft | 7 kts | 277° |
| 2026-05-06 09:18 | -29.45507 | 27.55764 | 5333 ft | 8 kts | 205° |
| 2026-05-06 09:18 | -29.45543 | 27.55727 | 5332 ft | 8 kts | 261° |
| 2026-05-06 09:18 | -29.45525 | 27.55639 | 5331 ft | 14 kts | 286° |
| 2026-05-06 09:19 | -29.45498 | 27.55522 | 5333 ft | 14 kts | 274° |
| 2026-05-06 09:19 | -29.45563 | 27.55456 | 5335 ft | 15 kts | 195° |
| 2026-05-06 09:19 | -29.45676 | 27.55421 | 5334 ft | 19 kts | 195° |
| 2026-05-06 09:19 | -29.45815 | 27.55377 | 5335 ft | 23 kts | 195° |
| 2026-05-06 09:20 | -29.45980 | 27.55324 | 5340 ft | 27 kts | 195° |
| 2026-05-06 09:20 | -29.46171 | 27.55266 | 5340 ft | 30 kts | 194° |
| 2026-05-06 09:20 | -29.46385 | 27.55201 | 5342 ft | 32 kts | 195° |
| 2026-05-06 09:20 | -29.46582 | 27.55139 | 5346 ft | 27 kts | 195° |
| 2026-05-06 09:21 | -29.46747 | 27.55087 | 5351 ft | 22 kts | 195° |
| 2026-05-06 09:21 | -29.46872 | 27.55064 | 5351 ft | 15 kts | 162° |
| 2026-05-06 09:21 | -29.46943 | 27.55057 | 5352 ft | 7 kts | 241° |
| 2026-05-06 09:21 | -29.46936 | 27.55028 | 5352 ft | 2 kts | 13° |
| 2026-05-06 09:22 | -29.46934 | 27.55029 | 5352 ft | 0 kts | 16° |
| 2026-05-06 09:22 | -29.46864 | 27.55052 | 5351 ft | 36 kts | 15° |
| 2026-05-06 09:22 | -29.46398 | 27.55197 | 5341 ft | 100 kts | 15° |
| 2026-05-06 09:22 | -29.45562 | 27.55459 | 5404 ft | 141 kts | 13° |
| 2026-05-06 09:23 | -29.44584 | 27.55769 | 5915 ft | 150 kts | 13° |
| 2026-05-06 09:23 | -29.43571 | 27.56093 | 6540 ft | 150 kts | 11° |
| 2026-05-06 09:23 | -29.42578 | 27.56419 | 7227 ft | 146 kts | 11° |
| 2026-05-06 09:23 | -29.41600 | 27.56753 | 7726 ft | 148 kts | 11° |
| 2026-05-06 09:24 | -29.40622 | 27.57129 | 8173 ft | 150 kts | 15° |
| 2026-05-06 09:24 | -29.39633 | 27.57572 | 8578 ft | 156 kts | 15° |
| 2026-05-06 09:24 | -29.38572 | 27.58078 | 8635 ft | 172 kts | 16° |
| 2026-05-06 09:24 | -29.37442 | 27.58639 | 8659 ft | 181 kts | 17° |
| 2026-05-06 09:25 | -29.36262 | 27.59230 | 8689 ft | 189 kts | 18° |
| 2026-05-06 09:25 | -29.35041 | 27.59850 | 8723 ft | 195 kts | 19° |
| 2026-05-06 09:25 | -29.33776 | 27.60501 | 8698 ft | 206 kts | 19° |
| 2026-05-06 09:25 | -29.32401 | 27.61205 | 8589 ft | 229 kts | 20° |
| 2026-05-06 09:26 | -29.30875 | 27.61982 | 8523 ft | 250 kts | 20° |
| 2026-05-06 09:26 | -29.29236 | 27.62826 | 8510 ft | 266 kts | 20° |
| 2026-05-06 09:26 | -29.27508 | 27.63721 | 8634 ft | 278 kts | 21° |
| 2026-05-06 09:26 | -29.25731 | 27.64641 | 8922 ft | 282 kts | 21° |
| 2026-05-06 09:27 | -29.23949 | 27.65573 | 9331 ft | 281 kts | 21° |
| 2026-05-06 09:27 | -29.22163 | 27.66513 | 9676 ft | 284 kts | 21° |
| 2026-05-06 09:27 | -29.20362 | 27.67461 | 10021 ft | 284 kts | 20° |
| 2026-05-06 09:27 | -29.18546 | 27.68396 | 10219 ft | 291 kts | 20° |
| 2026-05-06 09:28 | -29.16671 | 27.69357 | 10384 ft | 298 kts | 20° |
| 2026-05-06 09:28 | -29.14771 | 27.70331 | 10651 ft | 300 kts | 20° |
| 2026-05-06 09:28 | -29.12864 | 27.71321 | 10975 ft | 301 kts | 20° |
| 2026-05-06 09:28 | -29.10950 | 27.72301 | 11280 ft | 302 kts | 19° |
| 2026-05-06 09:29 | -29.09022 | 27.73279 | 11524 ft | 305 kts | 19° |
| 2026-05-06 09:29 | -29.07082 | 27.74267 | 11830 ft | 305 kts | 19° |
| 2026-05-06 09:29 | -29.05139 | 27.75260 | 12128 ft | 307 kts | 19° |
| 2026-05-06 09:29 | -29.03195 | 27.76266 | 12409 ft | 308 kts | 19° |
| 2026-05-06 09:30 | -29.01236 | 27.77278 | 12714 ft | 309 kts | 19° |
| 2026-05-06 09:30 | -28.99286 | 27.78275 | 12965 ft | 312 kts | 18° |
| 2026-05-06 09:30 | -28.97297 | 27.79293 | 13259 ft | 314 kts | 18° |
| 2026-05-06 09:30 | -28.95295 | 27.80314 | 13607 ft | 316 kts | 18° |
| 2026-05-06 09:31 | -28.93285 | 27.81349 | 14201 ft | 318 kts | 18° |
| 2026-05-06 09:31 | -28.91238 | 27.82389 | 14770 ft | 319 kts | 18° |
| 2026-05-06 09:31 | -28.89230 | 27.83407 | 15329 ft | 319 kts | 17° |
| 2026-05-06 09:31 | -28.87206 | 27.84444 | 15921 ft | 320 kts | 17° |
| 2026-05-06 09:32 | -28.85171 | 27.85473 | 16451 ft | 320 kts | 17° |
| 2026-05-06 09:32 | -28.83130 | 27.86503 | 16967 ft | 321 kts | 17° |
| 2026-05-06 09:32 | -28.81087 | 27.87543 | 17445 ft | 322 kts | 17° |
| 2026-05-06 09:32 | -28.79035 | 27.88582 | 17885 ft | 322 kts | 16° |
| 2026-05-06 09:33 | -28.76982 | 27.89611 | 18313 ft | 324 kts | 16° |
| 2026-05-06 09:33 | -28.74917 | 27.90645 | 18680 ft | 325 kts | 15° |
| 2026-05-06 09:33 | -28.72849 | 27.91688 | 19043 ft | 325 kts | 15° |
| 2026-05-06 09:33 | -28.70780 | 27.92747 | 19405 ft | 324 kts | 15° |
| 2026-05-06 09:34 | -28.68736 | 27.93800 | 19854 ft | 322 kts | 13° |
| 2026-05-06 09:34 | -28.66689 | 27.94832 | 20176 ft | 322 kts | 13° |
| 2026-05-06 09:34 | -28.64631 | 27.95852 | 20523 ft | 323 kts | 13° |
| 2026-05-06 09:34 | -28.62568 | 27.96878 | 20863 ft | 324 kts | 13° |
| 2026-05-06 09:35 | -28.60500 | 27.97914 | 21203 ft | 325 kts | 13° |
| 2026-05-06 09:35 | -28.58426 | 27.98955 | 21537 ft | 326 kts | 12° |
| 2026-05-06 09:35 | -28.56344 | 27.99985 | 21877 ft | 327 kts | 12° |
| 2026-05-06 09:35 | -28.54257 | 28.01022 | 22214 ft | 328 kts | 12° |
| 2026-05-06 09:36 | -28.52165 | 28.02066 | 22472 ft | 329 kts | 12° |
| 2026-05-06 09:36 | -28.50096 | 28.03105 | 22771 ft | 330 kts | 12° |
| 2026-05-06 09:36 | -28.47998 | 28.04173 | 23056 ft | 331 kts | 12° |
| 2026-05-06 09:36 | -28.45894 | 28.05236 | 23351 ft | 331 kts | 11° |
| 2026-05-06 09:37 | -28.43780 | 28.06288 | 23596 ft | 332 kts | 11° |
| 2026-05-06 09:37 | -28.41674 | 28.07348 | 23814 ft | 330 kts | 10° |
| 2026-05-06 09:37 | -28.39608 | 28.08413 | 24217 ft | 325 kts | 8° |
| 2026-05-06 09:37 | -28.37533 | 28.09443 | 24420 ft | 325 kts | 8° |
| 2026-05-06 09:38 | -28.35445 | 28.10446 | 24605 ft | 326 kts | 7° |
| 2026-05-06 09:38 | -28.33352 | 28.11432 | 24841 ft | 327 kts | 7° |
| 2026-05-06 09:38 | -28.31252 | 28.12445 | 25071 ft | 327 kts | 8° |
| 2026-05-06 09:38 | -28.29159 | 28.13473 | 25311 ft | 328 kts | 8° |
| 2026-05-06 09:39 | -28.27072 | 28.14537 | 25556 ft | 329 kts | 9° |
| 2026-05-06 09:39 | -28.24990 | 28.15590 | 25790 ft | 328 kts | 8° |
| 2026-05-06 09:39 | -28.22904 | 28.16638 | 26027 ft | 328 kts | 8° |
| 2026-05-06 09:39 | -28.20817 | 28.17686 | 26250 ft | 328 kts | 8° |
| 2026-05-06 09:40 | -28.18730 | 28.18734 | 26486 ft | 328 kts | 8° |
| 2026-05-06 09:40 | -28.16638 | 28.19788 | 26726 ft | 328 kts | 8° |
| 2026-05-06 09:40 | -28.12467 | 28.21896 | 27177 ft | 328 kts | 8° |
| 2026-05-06 09:41 | -28.10383 | 28.22952 | 27407 ft | 328 kts | 8° |
| 2026-05-06 09:41 | -28.08304 | 28.24007 | 27627 ft | 328 kts | 8° |
| 2026-05-06 09:41 | -28.06222 | 28.25065 | 27854 ft | 328 kts | 8° |
| 2026-05-06 09:41 | -28.04140 | 28.26116 | 28073 ft | 327 kts | 8° |
| 2026-05-06 09:42 | -28.02055 | 28.27146 | 28309 ft | 327 kts | 8° |
| 2026-05-06 09:42 | -27.99970 | 28.28174 | 28520 ft | 327 kts | 8° |
| 2026-05-06 09:42 | -27.97883 | 28.29182 | 28740 ft | 322 kts | 5° |
| 2026-05-06 09:42 | -27.95779 | 28.29972 | 28943 ft | 316 kts | 1° |
| 2026-05-06 09:43 | -27.93671 | 28.30655 | 29160 ft | 314 kts | 1° |
| 2026-05-06 09:43 | -27.91558 | 28.31307 | 29372 ft | 314 kts | 0° |
| 2026-05-06 09:43 | -27.89456 | 28.31963 | 29593 ft | 314 kts | 0° |
| 2026-05-06 09:43 | -27.87378 | 28.32617 | 29814 ft | 314 kts | 1° |
| 2026-05-06 09:44 | -27.85273 | 28.33309 | 30022 ft | 315 kts | 1° |
| 2026-05-06 09:44 | -27.83166 | 28.34016 | 30145 ft | 317 kts | 1° |
| 2026-05-06 09:44 | -27.81046 | 28.34734 | 30286 ft | 318 kts | 2° |
| 2026-05-06 09:44 | -27.78923 | 28.35453 | 30457 ft | 318 kts | 2° |
| 2026-05-06 09:45 | -27.76825 | 28.36165 | 30634 ft | 314 kts | 2° |
| 2026-05-06 09:45 | -27.74740 | 28.36876 | 30836 ft | 313 kts | 2° |
| 2026-05-06 09:45 | -27.72659 | 28.37576 | 30947 ft | 312 kts | 2° |
| 2026-05-06 09:45 | -27.70574 | 28.38267 | 31037 ft | 314 kts | 2° |
| 2026-05-06 09:46 | -27.66325 | 28.39699 | 31083 ft | 323 kts | 3° |
| 2026-05-06 09:46 | -27.61945 | 28.41168 | 31086 ft | 333 kts | 3° |
| 2026-05-06 09:47 | -27.57448 | 28.42714 | 31093 ft | 343 kts | 4° |
| 2026-05-06 09:47 | -27.52840 | 28.44289 | 31055 ft | 350 kts | 4° |
| 2026-05-06 09:48 | -27.48121 | 28.45901 | 31077 ft | 359 kts | 5° |
| 2026-05-06 09:48 | -27.43423 | 28.48105 | 31081 ft | 375 kts | 12° |
| 2026-05-06 09:49 | -27.38702 | 28.50682 | 31076 ft | 379 kts | 13° |
| 2026-05-06 09:49 | -27.33966 | 28.53273 | 31079 ft | 378 kts | 12° |
| 2026-05-06 09:50 | -27.29207 | 28.55768 | 31074 ft | 377 kts | 12° |
| 2026-05-06 09:50 | -27.24438 | 28.58239 | 31048 ft | 377 kts | 12° |
| 2026-05-06 09:51 | -27.19673 | 28.60702 | 31060 ft | 377 kts | 12° |
| 2026-05-06 09:51 | -27.14919 | 28.63165 | 31066 ft | 376 kts | 12° |
| 2026-05-06 09:52 | -27.10159 | 28.65637 | 31073 ft | 377 kts | 12° |
| 2026-05-06 09:52 | -27.05414 | 28.68105 | 31046 ft | 373 kts | 12° |
| 2026-05-06 09:53 | -27.00722 | 28.70549 | 31062 ft | 372 kts | 12° |
| 2026-05-06 09:53 | -26.98362 | 28.71777 | 30924 ft | 376 kts | 12° |
| 2026-05-06 09:53 | -26.95987 | 28.73008 | 30685 ft | 377 kts | 12° |
| 2026-05-06 09:54 | -26.93603 | 28.74244 | 30419 ft | 376 kts | 12° |
| 2026-05-06 09:54 | -26.91227 | 28.75458 | 30205 ft | 375 kts | 12° |
| 2026-05-06 09:54 | -26.88853 | 28.76679 | 29896 ft | 376 kts | 12° |
| 2026-05-06 09:54 | -26.86460 | 28.77914 | 29345 ft | 380 kts | 12° |
| 2026-05-06 09:55 | -26.84058 | 28.79153 | 28626 ft | 379 kts | 12° |
| 2026-05-06 09:55 | -26.81677 | 28.80386 | 27929 ft | 376 kts | 12° |
| 2026-05-06 09:55 | -26.79320 | 28.81599 | 27250 ft | 372 kts | 12° |
| 2026-05-06 09:55 | -26.76974 | 28.82783 | 26589 ft | 368 kts | 12° |
| 2026-05-06 09:56 | -26.74619 | 28.83644 | 25943 ft | 341 kts | 355° |
| 2026-05-06 09:56 | -26.72444 | 28.83318 | 25348 ft | 300 kts | 330° |
| 2026-05-06 09:56 | -26.70865 | 28.81948 | 24762 ft | 286 kts | 312° |
| 2026-05-06 09:56 | -26.69578 | 28.80263 | 24278 ft | 283 kts | 311° |
| 2026-05-06 09:57 | -26.68315 | 28.78628 | 23878 ft | 279 kts | 311° |
| 2026-05-06 09:57 | -26.67138 | 28.76922 | 23354 ft | 276 kts | 307° |
| 2026-05-06 09:57 | -26.66114 | 28.75085 | 22824 ft | 275 kts | 303° |
| 2026-05-06 09:57 | -26.65227 | 28.73201 | 22311 ft | 273 kts | 300° |
| 2026-05-06 09:58 | -26.64450 | 28.71297 | 21819 ft | 272 kts | 298° |
| 2026-05-06 09:58 | -26.63719 | 28.69348 | 21360 ft | 270 kts | 298° |
| 2026-05-06 09:58 | -26.63020 | 28.67413 | 20915 ft | 267 kts | 297° |
| 2026-05-06 09:58 | -26.62343 | 28.65496 | 20540 ft | 264 kts | 297° |
| 2026-05-06 09:59 | -26.61688 | 28.63587 | 20113 ft | 262 kts | 296° |
| 2026-05-06 09:59 | -26.61045 | 28.61695 | 19691 ft | 259 kts | 297° |
| 2026-05-06 09:59 | -26.60400 | 28.59825 | 19278 ft | 257 kts | 297° |
| 2026-05-06 09:59 | -26.59758 | 28.57966 | 18866 ft | 255 kts | 297° |
| 2026-05-06 10:00 | -26.59122 | 28.56127 | 18471 ft | 254 kts | 297° |
| 2026-05-06 10:00 | -26.58495 | 28.54285 | 18016 ft | 252 kts | 296° |
| 2026-05-06 10:00 | -26.57882 | 28.52449 | 17539 ft | 253 kts | 296° |
| 2026-05-06 10:00 | -26.57262 | 28.50612 | 17081 ft | 254 kts | 295° |
| 2026-05-06 10:01 | -26.56637 | 28.48760 | 16623 ft | 255 kts | 295° |
| 2026-05-06 10:01 | -26.56015 | 28.46896 | 16167 ft | 257 kts | 294° |
| 2026-05-06 10:01 | -26.55403 | 28.45020 | 15720 ft | 257 kts | 294° |
| 2026-05-06 10:01 | -26.54787 | 28.43147 | 15271 ft | 256 kts | 294° |
| 2026-05-06 10:02 | -26.54381 | 28.41914 | 14987 ft | 255 kts | 294° |
| 2026-05-06 10:02 | -26.53776 | 28.40060 | 14565 ft | 253 kts | 293° |
| 2026-05-06 10:02 | -26.53164 | 28.38224 | 14207 ft | 251 kts | 293° |
| 2026-05-06 10:02 | -26.52563 | 28.36413 | 13920 ft | 247 kts | 292° |
| 2026-05-06 10:03 | -26.51974 | 28.34627 | 13580 ft | 243 kts | 292° |
| 2026-05-06 10:03 | -26.51318 | 28.32927 | 13272 ft | 232 kts | 306° |
| 2026-05-06 10:03 | -26.50115 | 28.31795 | 12988 ft | 226 kts | 323° |
| 2026-05-06 10:03 | -26.48811 | 28.30828 | 12727 ft | 224 kts | 322° |
| 2026-05-06 10:04 | -26.47527 | 28.29869 | 12568 ft | 218 kts | 322° |
| 2026-05-06 10:04 | -26.46270 | 28.28942 | 12329 ft | 216 kts | 322° |
| 2026-05-06 10:04 | -26.45009 | 28.28020 | 12045 ft | 217 kts | 323° |
| 2026-05-06 10:04 | -26.43740 | 28.27102 | 11767 ft | 217 kts | 322° |
| 2026-05-06 10:05 | -26.42474 | 28.26173 | 11487 ft | 218 kts | 322° |
| 2026-05-06 10:05 | -26.41213 | 28.25225 | 11192 ft | 219 kts | 322° |
| 2026-05-06 10:05 | -26.39953 | 28.24263 | 10914 ft | 220 kts | 321° |
| 2026-05-06 10:05 | -26.38711 | 28.23309 | 10664 ft | 220 kts | 321° |
| 2026-05-06 10:06 | -26.37459 | 28.22351 | 10236 ft | 218 kts | 321° |
| 2026-05-06 10:06 | -26.36206 | 28.21392 | 9574 ft | 220 kts | 321° |
| 2026-05-06 10:06 | -26.34940 | 28.20419 | 9073 ft | 221 kts | 321° |
| 2026-05-06 10:06 | -26.33619 | 28.19632 | 8948 ft | 218 kts | 344° |
| 2026-05-06 10:07 | -26.32106 | 28.19834 | 8804 ft | 224 kts | 12° |
| 2026-05-06 10:07 | -26.30620 | 28.20361 | 8506 ft | 220 kts | 11° |
| 2026-05-06 10:07 | -26.29199 | 28.20831 | 8218 ft | 208 kts | 11° |
| 2026-05-06 10:07 | -26.27828 | 28.21282 | 7898 ft | 201 kts | 11° |
| 2026-05-06 10:08 | -26.26519 | 28.21700 | 7628 ft | 191 kts | 10° |
| 2026-05-06 10:08 | -26.25260 | 28.22092 | 7357 ft | 185 kts | 9° |
| 2026-05-06 10:08 | -26.24029 | 28.22470 | 7086 ft | 182 kts | 10° |
| 2026-05-06 10:08 | -26.22816 | 28.22843 | 6883 ft | 175 kts | 11° |
| 2026-05-06 10:09 | -26.21705 | 28.23199 | 6664 ft | 158 kts | 10° |
| 2026-05-06 10:09 | -26.20698 | 28.23510 | 6469 ft | 141 kts | 8° |
| 2026-05-06 10:09 | -26.19779 | 28.23789 | 6247 ft | 134 kts | 9° |
| 2026-05-06 10:09 | -26.18878 | 28.24068 | 6049 ft | 133 kts | 8° |
| 2026-05-06 10:10 | -26.17984 | 28.24351 | 5879 ft | 134 kts | 7° |
| 2026-05-06 10:10 | -26.17078 | 28.24632 | 5681 ft | 135 kts | 7° |
| 2026-05-06 10:10 | -26.16165 | 28.24910 | 5530 ft | 136 kts | 9° |
| 2026-05-06 10:10 | -26.15305 | 28.25174 | 5514 ft | 109 kts | 17° |
| 2026-05-06 10:11 | -26.14800 | 28.25319 | 5506 ft | 44 kts | 7° |
| 2026-05-06 10:11 | -26.14585 | 28.25298 | 5506 ft | 24 kts | 338° |
| 2026-05-06 10:11 | -26.14466 | 28.25201 | 5510 ft | 21 kts | 315° |
| 2026-05-06 10:11 | -26.14362 | 28.25088 | 5521 ft | 19 kts | 316° |
| 2026-05-06 10:12 | -26.14280 | 28.25001 | 5531 ft | 16 kts | 316° |
| 2026-05-06 10:12 | -26.14186 | 28.24899 | 5531 ft | 21 kts | 315° |
| 2026-05-06 10:12 | -26.14069 | 28.24771 | 5531 ft | 24 kts | 316° |
| 2026-05-06 10:12 | -26.13956 | 28.24650 | 5531 ft | 19 kts | 316° |
| 2026-05-06 10:13 | -26.13929 | 28.24542 | 5531 ft | 15 kts | 254° |
| 2026-05-06 10:13 | -26.13954 | 28.24435 | 5529 ft | 15 kts | 256° |
| 2026-05-06 10:13 | -26.13978 | 28.24334 | 5531 ft | 13 kts | 256° |
| 2026-05-06 10:13 | -26.13986 | 28.24236 | 5534 ft | 12 kts | 282° |
| 2026-05-06 10:14 | -26.13963 | 28.24144 | 5544 ft | 12 kts | 286° |
| 2026-05-06 10:14 | -26.13941 | 28.24057 | 5554 ft | 12 kts | 285° |
| 2026-05-06 10:14 | -26.13916 | 28.23956 | 5558 ft | 15 kts | 285° |
| 2026-05-06 10:14 | -26.13887 | 28.23838 | 5561 ft | 17 kts | 285° |
| 2026-05-06 10:15 | -26.13853 | 28.23707 | 5562 ft | 17 kts | 285° |
| 2026-05-06 10:15 | -26.13822 | 28.23586 | 5562 ft | 16 kts | 286° |
| 2026-05-06 10:15 | -26.13790 | 28.23460 | 5553 ft | 20 kts | 285° |
| 2026-05-06 10:15 | -26.13780 | 28.23336 | 5548 ft | 15 kts | 246° |
| 2026-05-06 10:16 | -26.13799 | 28.23236 | 5547 ft | 12 kts | 276° |
| 2026-05-06 10:16 | -26.13788 | 28.23127 | 5546 ft | 16 kts | 276° |
| 2026-05-06 10:16 | -26.13776 | 28.23006 | 5546 ft | 15 kts | 276° |
| 2026-05-06 10:16 | -26.13766 | 28.22901 | 5551 ft | 13 kts | 276° |
| 2026-05-06 10:17 | -26.13746 | 28.22816 | 5549 ft | 10 kts | 290° |
| 2026-05-06 10:17 | -26.13729 | 28.22750 | 5546 ft | 6 kts | 296° |
| 2026-05-06 10:17 | -26.13697 | 28.22748 | 5546 ft | 3 kts | 12° |
| 2026-05-06 10:17 | -26.13693 | 28.22749 | 5549 ft | 0 kts | 12° |